createdAt,value
2017-10-16T00:02:09.892Z,10.77
2017-10-16T00:04:37.501Z,5.18
2017-10-16T00:07:05.021Z,5.67
2017-10-16T00:09:33.997Z,10.10
2017-10-16T00:12:02.333Z,6.50
2017-10-16T00:14:29.842Z,11.02
2017-10-16T00:16:59.084Z,6.37
2017-10-16T00:19:26.655Z,5.83
2017-10-16T00:21:54.210Z,6.67
2017-10-16T00:24:22.716Z,11.28
2017-10-16T00:26:50.252Z,5.95
2017-10-16T00:29:17.768Z,10.70
2017-10-16T00:31:46.111Z,10.50
2017-10-16T00:34:13.616Z,8.45
2017-10-16T00:36:42.802Z,7.10
2017-10-16T00:39:11.142Z,7.43
2017-10-16T00:41:38.668Z,9.70
2017-10-16T00:44:06.739Z,7.18
2017-10-16T00:46:34.312Z,7.20
2017-10-16T00:49:01.833Z,11.93
2017-10-16T00:51:29.339Z,10.87
2017-10-16T00:54:01.129Z,11.60
2017-10-16T00:56:28.796Z,7.90
2017-10-16T00:58:56.293Z,10.53
2017-10-16T01:01:24.064Z,7.90
2017-10-16T01:03:51.617Z,11.38
2017-10-16T01:06:19.133Z,10.82
2017-10-16T01:08:50.304Z,12.07
2017-10-16T01:11:17.888Z,6.87
2017-10-16T01:13:45.948Z,8.74
2017-10-16T01:16:13.454Z,10.30
2017-10-16T01:18:41.023Z,15.20
2017-10-16T01:21:08.536Z,17.90
2017-10-16T01:23:40.082Z,14.87
2017-10-16T01:26:07.786Z,9.70
2017-10-16T01:28:35.404Z,6.97
2017-10-16T01:31:02.932Z,9.50
2017-10-16T01:33:30.436Z,12.48
2017-10-16T01:35:58.559Z,12.40
2017-10-16T01:38:26.872Z,9.83
2017-10-16T01:40:54.433Z,12.53
2017-10-16T01:43:21.955Z,16.53
2017-10-16T01:45:50.239Z,15.50
2017-10-16T01:48:18.049Z,11.10
2017-10-16T01:50:45.555Z,13.43
2017-10-16T01:53:13.172Z,13.82
2017-10-16T01:55:40.719Z,11.38
2017-10-16T01:58:08.247Z,14.20
2017-10-16T02:00:35.753Z,10.57
2017-10-16T02:03:03.308Z,17.95
2017-10-16T02:05:30.844Z,11.60
2017-10-16T02:07:58.387Z,21.93
2017-10-16T02:10:25.959Z,22.98
2017-10-16T02:12:53.531Z,24.97
2017-10-16T02:15:21.605Z,23.48
2017-10-16T02:17:49.434Z,15.80
2017-10-16T02:20:16.966Z,25.30
2017-10-16T02:22:45.235Z,18.53
2017-10-16T02:25:12.795Z,15.70
2017-10-16T02:27:40.785Z,24.23
2017-10-16T02:30:09.097Z,31.77
2017-10-16T02:32:36.657Z,23.30
2017-10-16T02:35:05.241Z,17.05
2017-10-16T02:37:32.946Z,24.83
2017-10-16T02:40:00.487Z,17.70
2017-10-16T02:42:28.036Z,15.57
2017-10-16T02:44:55.584Z,16.20
2017-10-16T02:47:23.156Z,25.07
2017-10-16T02:49:50.684Z,21.98
2017-10-16T02:52:19.268Z,26.43
2017-10-16T02:54:46.820Z,24.70
2017-10-16T02:57:15.104Z,28.93
2017-10-16T02:59:43.412Z,23.55
2017-10-16T03:02:11.235Z,17.10
2017-10-16T03:04:38.771Z,23.83
2017-10-16T03:07:06.292Z,20.02
2017-10-16T03:09:38.061Z,21.97
2017-10-16T03:12:05.697Z,22.93
2017-10-16T03:14:33.456Z,17.70
2017-10-16T03:17:01.079Z,23.20
2017-10-16T03:19:29.370Z,17.60
2017-10-16T03:21:57.691Z,20.40
2017-10-16T03:24:25.439Z,17.17
2017-10-16T03:26:52.983Z,19.83
2017-10-16T03:29:20.495Z,18.73
2017-10-16T03:31:48.805Z,20.50
2017-10-16T03:34:17.444Z,17.80
2017-10-16T03:36:44.995Z,17.70
2017-10-16T03:39:12.547Z,23.73
2017-10-16T03:41:40.069Z,20.30
2017-10-16T03:44:07.583Z,19.23
2017-10-16T03:46:35.154Z,20.02
2017-10-16T03:49:02.668Z,18.43
2017-10-16T03:51:30.800Z,17.27
2017-10-16T03:53:58.431Z,19.23
2017-10-16T03:56:25.943Z,20.37
2017-10-16T03:58:53.555Z,20.43
2017-10-16T04:01:21.135Z,22.10
2017-10-16T04:03:49.667Z,16.10
2017-10-16T04:06:17.166Z,21.03
2017-10-16T04:08:44.876Z,16.60
2017-10-16T04:11:12.396Z,19.20
2017-10-16T04:13:44.487Z,21.70
2017-10-16T04:16:12.893Z,22.87
2017-10-16T04:18:40.423Z,18.67
2017-10-16T04:21:09.621Z,21.00
2017-10-16T04:23:37.947Z,23.63
2017-10-16T04:26:05.452Z,16.07
2017-10-16T04:28:34.705Z,17.65
2017-10-16T04:31:02.223Z,20.55
2017-10-16T04:33:29.905Z,17.70
2017-10-16T04:35:57.514Z,19.43
2017-10-16T04:38:25.055Z,19.03
2017-10-16T04:40:54.132Z,26.02
2017-10-16T04:43:25.542Z,21.33
2017-10-16T04:45:53.890Z,23.42
2017-10-16T04:48:21.572Z,23.73
2017-10-16T04:50:49.163Z,14.57
2017-10-16T04:53:16.668Z,22.80
2017-10-16T04:55:44.471Z,21.73
2017-10-16T04:58:14.071Z,24.42
2017-10-16T05:00:43.259Z,24.97
2017-10-16T05:03:10.768Z,24.90
2017-10-16T05:05:38.337Z,21.53
2017-10-16T05:08:05.873Z,23.35
2017-10-16T05:10:33.438Z,20.63
2017-10-16T05:13:04.914Z,21.10
2017-10-16T05:15:33.673Z,23.73
2017-10-16T05:18:01.249Z,24.80
2017-10-16T05:20:28.795Z,29.77
2017-10-16T05:22:56.368Z,29.02
2017-10-16T05:25:23.960Z,25.48
2017-10-16T05:27:51.690Z,29.15
2017-10-16T05:30:19.234Z,24.43
2017-10-16T05:32:46.738Z,25.47
2017-10-16T05:35:14.291Z,36.60
2017-10-16T05:37:42.022Z,33.33
2017-10-16T05:40:09.544Z,30.77
2017-10-16T05:42:42.144Z,35.20
2017-10-16T05:45:09.693Z,31.40
2017-10-16T05:47:37.216Z,28.27
2017-10-16T05:50:04.776Z,27.10
2017-10-16T05:52:32.296Z,33.13
2017-10-16T05:55:00.473Z,26.58
2017-10-16T05:57:31.928Z,28.33
2017-10-16T05:59:59.438Z,36.13
2017-10-16T06:02:27.874Z,37.73
2017-10-16T06:04:55.393Z,35.08
2017-10-16T06:07:22.934Z,25.23
2017-10-16T06:09:51.453Z,27.00
2017-10-16T06:12:19.212Z,36.50
2017-10-16T06:14:46.769Z,29.13
2017-10-16T06:17:14.580Z,27.00
2017-10-16T06:19:42.988Z,28.00
2017-10-16T06:22:10.547Z,32.97
2017-10-16T06:24:39.749Z,26.15
2017-10-16T06:27:07.251Z,30.93
2017-10-16T06:29:38.175Z,29.97
2017-10-16T06:32:05.681Z,29.67
2017-10-16T06:34:34.927Z,28.40
2017-10-16T06:37:02.502Z,35.00
2017-10-16T06:39:30.057Z,36.40
2017-10-16T06:41:57.575Z,31.00
2017-10-16T06:44:25.079Z,30.90
2017-10-16T06:46:52.634Z,32.58
2017-10-16T06:49:20.195Z,35.70
2017-10-16T06:51:48.215Z,28.07
2017-10-16T06:54:15.728Z,36.60
2017-10-16T06:56:43.232Z,33.77
2017-10-16T06:59:10.786Z,31.00
2017-10-16T07:01:39.068Z,35.03
2017-10-16T07:04:07.278Z,33.13
2017-10-16T07:06:34.808Z,29.63
2017-10-16T07:09:02.371Z,25.03
2017-10-16T07:11:29.882Z,31.00
2017-10-16T07:14:01.564Z,26.57
2017-10-16T07:16:29.067Z,33.57
2017-10-16T07:18:56.599Z,35.95
2017-10-16T07:21:24.920Z,25.10
2017-10-16T07:23:52.483Z,52.27
2017-10-16T07:26:20.024Z,36.70
2017-10-16T07:28:55.199Z,35.90
2017-10-16T07:31:22.719Z,38.47
2017-10-16T07:33:50.301Z,31.92
2017-10-16T07:36:17.816Z,33.33
2017-10-16T07:38:45.362Z,33.17
2017-10-16T07:41:12.932Z,29.75
2017-10-16T07:43:42.131Z,30.98
2017-10-16T07:46:13.295Z,27.27
2017-10-16T07:48:41.931Z,26.62
2017-10-16T07:51:09.725Z,30.30
2017-10-16T07:53:37.516Z,30.87
2017-10-16T07:56:05.242Z,37.50
2017-10-16T07:58:33.072Z,30.10
2017-10-16T08:01:01.697Z,23.55
2017-10-16T08:03:29.204Z,35.10
2017-10-16T08:05:56.776Z,23.47
2017-10-16T08:08:24.323Z,30.73
2017-10-16T08:10:51.877Z,26.95
2017-10-16T08:13:20.851Z,26.22
2017-10-16T08:15:52.634Z,25.10
2017-10-16T08:18:20.677Z,27.55
2017-10-16T08:20:48.208Z,26.67
2017-10-16T08:23:16.491Z,24.20
2017-10-16T08:25:44.079Z,21.35
2017-10-16T08:28:11.600Z,25.20
2017-10-16T08:30:39.434Z,22.40
2017-10-16T08:33:06.984Z,23.92
2017-10-16T08:35:35.191Z,19.70
2017-10-16T08:38:02.749Z,21.00
2017-10-16T08:40:31.763Z,30.57
2017-10-16T08:43:00.080Z,22.65
2017-10-16T08:45:31.619Z,21.47
2017-10-16T08:47:59.551Z,26.35
2017-10-16T08:50:27.058Z,31.57
2017-10-16T08:52:54.608Z,33.57
2017-10-16T08:55:22.127Z,28.23
2017-10-16T08:57:50.458Z,24.63
2017-10-16T09:00:18.395Z,26.70
2017-10-16T09:02:45.973Z,31.43
2017-10-16T09:05:13.530Z,25.87
2017-10-16T09:07:41.224Z,19.00
2017-10-16T09:10:08.728Z,27.70
2017-10-16T09:12:36.314Z,20.47
2017-10-16T09:15:03.829Z,21.55
2017-10-16T09:17:33.086Z,26.27
2017-10-16T09:20:00.952Z,20.53
2017-10-16T09:22:28.508Z,28.00
2017-10-16T09:24:56.943Z,22.70
2017-10-16T09:27:24.449Z,26.83
2017-10-16T09:29:52.015Z,24.90
2017-10-16T09:32:19.531Z,20.60
2017-10-16T09:34:47.360Z,24.30
2017-10-16T09:37:14.931Z,16.67
2017-10-16T09:39:42.450Z,17.03
2017-10-16T09:42:10.891Z,17.23
2017-10-16T09:44:38.440Z,18.03
2017-10-16T09:47:05.987Z,15.80
2017-10-16T09:49:33.590Z,18.17
2017-10-16T09:52:01.277Z,18.50
2017-10-16T09:54:29.708Z,19.33
2017-10-16T09:56:58.039Z,12.75
2017-10-16T09:59:25.543Z,11.77
2017-10-16T10:01:54.764Z,20.02
2017-10-16T10:04:22.303Z,19.53
2017-10-16T10:06:50.579Z,13.87
2017-10-16T10:09:19.053Z,14.43
2017-10-16T10:11:47.403Z,13.37
2017-10-16T10:14:14.960Z,13.77
2017-10-16T10:16:46.425Z,20.43
2017-10-16T10:19:14.083Z,15.07
2017-10-16T10:21:41.897Z,14.27
2017-10-16T10:24:09.407Z,15.53
2017-10-16T10:26:36.938Z,16.95
2017-10-16T10:29:04.487Z,11.97
2017-10-16T10:31:32.104Z,12.67
2017-10-16T10:33:59.632Z,17.12
2017-10-16T10:36:28.070Z,17.23
2017-10-16T10:38:55.922Z,14.47
2017-10-16T10:41:23.550Z,11.33
2017-10-16T10:43:53.488Z,12.40
2017-10-16T10:46:21.074Z,13.67
2017-10-16T10:48:48.595Z,18.45
2017-10-16T10:51:17.834Z,22.33
2017-10-16T10:53:45.342Z,14.97
2017-10-16T10:56:12.898Z,11.80
2017-10-16T10:58:42.153Z,16.63
2017-10-16T11:01:09.662Z,11.75
2017-10-16T11:03:37.938Z,10.18
2017-10-16T11:06:06.408Z,11.73
2017-10-16T11:08:33.983Z,14.57
2017-10-16T11:11:02.304Z,12.43
2017-10-16T11:13:29.858Z,13.93
2017-10-16T11:15:57.363Z,11.67
2017-10-16T11:18:25.539Z,25.95
2017-10-16T11:20:53.310Z,12.33
2017-10-16T11:23:20.860Z,13.17
2017-10-16T11:25:48.567Z,15.25
2017-10-16T11:28:16.214Z,16.07
2017-10-16T11:30:44.390Z,9.50
2017-10-16T11:33:11.887Z,9.85
2017-10-16T11:35:39.430Z,10.90
2017-10-16T11:38:06.984Z,10.73
2017-10-16T11:40:34.499Z,10.30
2017-10-16T11:43:02.050Z,9.87
2017-10-16T11:45:29.551Z,8.73
2017-10-16T11:47:57.076Z,9.52
2017-10-16T11:50:28.558Z,11.47
2017-10-16T11:52:56.130Z,14.43
2017-10-16T11:55:23.722Z,12.77
2017-10-16T11:57:51.295Z,11.27
2017-10-16T12:00:18.840Z,10.17
2017-10-16T12:02:46.359Z,8.82
2017-10-16T12:05:13.935Z,8.77
2017-10-16T12:07:42.124Z,8.15
2017-10-16T12:10:09.678Z,10.00
2017-10-16T12:12:37.325Z,7.00
2017-10-16T12:15:04.844Z,20.93
2017-10-16T12:17:33.171Z,10.93
2017-10-16T12:20:00.989Z,10.15
2017-10-16T12:22:28.599Z,14.57
2017-10-16T12:24:56.763Z,11.30
2017-10-16T12:27:24.338Z,13.10
2017-10-16T12:29:52.618Z,8.75
2017-10-16T12:32:20.340Z,12.23
2017-10-16T12:34:47.854Z,14.73
2017-10-16T12:37:15.354Z,15.43
2017-10-16T12:39:43.721Z,10.73
2017-10-16T12:42:12.007Z,15.18
2017-10-16T12:44:39.516Z,16.10
2017-10-16T12:47:07.269Z,8.25
2017-10-16T12:49:34.830Z,11.30
2017-10-16T12:52:02.491Z,22.10
2017-10-16T12:54:30.039Z,11.20
2017-10-16T12:56:59.655Z,8.82
2017-10-16T12:59:27.208Z,21.83
2017-10-16T13:01:54.711Z,10.13
2017-10-16T13:04:24.007Z,10.43
2017-10-16T13:06:55.337Z,11.73
2017-10-16T13:09:23.431Z,11.00
2017-10-16T13:11:50.992Z,8.27
2017-10-16T13:14:19.027Z,11.73
2017-10-16T13:16:46.535Z,18.33
2017-10-16T13:19:14.086Z,8.30
2017-10-16T13:21:43.296Z,13.82
2017-10-16T13:24:10.859Z,9.27
2017-10-16T13:26:39.157Z,12.63
2017-10-16T13:29:08.395Z,9.47
2017-10-16T13:31:35.903Z,11.88
2017-10-16T13:34:03.504Z,8.40
2017-10-16T13:36:31.007Z,8.80
2017-10-16T13:39:00.356Z,11.00
2017-10-16T13:41:27.911Z,13.35
2017-10-16T13:43:55.443Z,9.73
2017-10-16T13:46:22.991Z,9.27
2017-10-16T13:48:52.056Z,18.13
2017-10-16T13:51:19.566Z,14.03
2017-10-16T13:53:51.628Z,15.17
2017-10-16T13:56:19.138Z,11.40
2017-10-16T13:58:46.649Z,10.20
2017-10-16T14:01:14.198Z,10.07
2017-10-16T14:03:41.744Z,8.60
2017-10-16T14:06:12.915Z,14.63
2017-10-16T14:08:41.369Z,9.10
2017-10-16T14:11:09.668Z,10.37
2017-10-16T14:13:37.188Z,14.70
2017-10-16T14:16:06.493Z,9.43
2017-10-16T14:18:34.804Z,12.20
2017-10-16T14:21:02.484Z,12.15
2017-10-16T14:23:30.690Z,11.75
2017-10-16T14:25:58.196Z,10.80
2017-10-16T14:28:26.113Z,10.10
2017-10-16T14:30:53.655Z,21.30
2017-10-16T14:33:21.170Z,11.07
2017-10-16T14:35:52.896Z,17.13
2017-10-16T14:38:21.218Z,8.67
2017-10-16T14:40:48.811Z,11.80
2017-10-16T14:43:16.337Z,9.10
2017-10-16T14:45:44.547Z,7.12
2017-10-16T14:48:12.083Z,9.17
2017-10-16T14:50:39.629Z,11.40
2017-10-16T14:53:07.164Z,15.93
2017-10-16T14:55:34.707Z,12.97
2017-10-16T14:58:03.923Z,11.33
2017-10-16T15:00:31.466Z,19.07
2017-10-16T15:02:59.788Z,9.53
2017-10-16T15:05:29.019Z,12.30
2017-10-16T15:07:56.552Z,11.53
2017-10-16T15:10:24.113Z,9.63
2017-10-16T15:12:51.630Z,9.43
2017-10-16T15:15:19.188Z,11.57
2017-10-16T15:17:46.719Z,9.83
2017-10-16T15:20:14.284Z,8.97
2017-10-16T15:22:47.119Z,14.15
2017-10-16T15:25:14.628Z,11.23
2017-10-16T15:27:43.599Z,9.73
2017-10-16T15:30:11.104Z,15.77
2017-10-16T15:32:39.400Z,10.10
2017-10-16T15:35:07.832Z,11.40
2017-10-16T15:37:35.473Z,17.00
2017-10-16T15:40:03.007Z,12.30
2017-10-16T15:42:30.762Z,15.33
2017-10-16T15:44:58.329Z,10.87
2017-10-16T15:47:26.759Z,15.65
2017-10-16T15:49:54.255Z,14.10
2017-10-16T15:52:21.829Z,22.87
2017-10-16T15:54:52.661Z,10.03
2017-10-16T15:57:20.226Z,15.90
2017-10-16T15:59:47.806Z,15.30
2017-10-16T16:02:15.991Z,12.37
2017-10-16T16:04:43.583Z,11.50
2017-10-16T16:07:11.091Z,20.30
2017-10-16T16:09:38.707Z,19.75
2017-10-16T16:12:07.013Z,20.20
2017-10-16T16:14:35.020Z,16.37
2017-10-16T16:17:02.647Z,21.25
2017-10-16T16:19:30.208Z,22.60
2017-10-16T16:21:58.328Z,22.70
2017-10-16T16:24:25.864Z,21.57
2017-10-16T16:26:53.363Z,21.95
2017-10-16T16:29:20.923Z,26.43
2017-10-16T16:31:49.078Z,16.75
2017-10-16T16:34:17.387Z,14.53
2017-10-16T16:36:44.965Z,19.50
2017-10-16T16:39:13.466Z,26.40
2017-10-16T16:41:41.495Z,28.08
2017-10-16T16:44:09.020Z,19.90
2017-10-16T16:46:36.547Z,17.83
2017-10-16T16:49:04.143Z,16.70
2017-10-16T16:51:31.643Z,12.90
2017-10-16T16:53:59.158Z,15.40
2017-10-16T16:56:26.735Z,17.92
2017-10-16T16:58:54.301Z,16.73
2017-10-16T17:01:21.832Z,21.30
2017-10-16T17:03:49.350Z,18.23
2017-10-16T17:06:16.923Z,20.83
2017-10-16T17:08:44.515Z,17.67
2017-10-16T17:11:12.806Z,22.13
2017-10-16T17:13:40.847Z,16.83
2017-10-16T17:16:08.434Z,36.10
2017-10-16T17:18:35.956Z,28.45
2017-10-16T17:21:03.740Z,14.23
2017-10-16T17:23:31.304Z,37.77
2017-10-16T17:25:59.569Z,15.95
2017-10-16T17:28:27.100Z,19.27
2017-10-16T17:30:54.882Z,19.20
2017-10-16T17:33:22.413Z,19.93
2017-10-16T17:35:52.176Z,16.27
2017-10-16T17:38:19.782Z,16.77
2017-10-16T17:40:47.384Z,22.40
2017-10-16T17:43:14.967Z,22.13
2017-10-16T17:45:44.483Z,17.17
2017-10-16T17:48:12.315Z,25.08
2017-10-16T17:50:40.174Z,22.63
2017-10-16T17:53:08.808Z,20.25
2017-10-16T17:55:36.768Z,22.37
2017-10-16T17:58:04.861Z,15.27
2017-10-16T18:00:33.707Z,27.80
2017-10-16T18:03:01.377Z,20.93
2017-10-16T18:05:29.939Z,21.50
2017-10-16T18:07:58.393Z,29.42
2017-10-16T18:10:26.023Z,16.65
2017-10-16T18:12:54.632Z,19.20
2017-10-16T18:15:22.870Z,19.67
2017-10-16T18:17:50.379Z,26.30
2017-10-16T18:20:17.945Z,21.08
2017-10-16T18:22:45.584Z,16.60
2017-10-16T18:25:13.232Z,20.43
2017-10-16T18:27:40.773Z,22.10
2017-10-16T18:30:08.384Z,19.20
2017-10-16T18:32:37.227Z,15.77
2017-10-16T18:35:04.748Z,21.07
2017-10-16T18:37:32.321Z,20.20
2017-10-16T18:40:00.752Z,25.33
2017-10-16T18:42:29.096Z,16.67
2017-10-16T18:44:56.616Z,18.20
2017-10-16T18:47:24.128Z,25.17
2017-10-16T18:49:51.747Z,18.30
2017-10-16T18:52:21.092Z,29.58
2017-10-16T18:54:48.609Z,20.27
2017-10-16T18:57:16.416Z,23.10
2017-10-16T18:59:44.859Z,20.27
2017-10-16T19:02:12.546Z,18.53
2017-10-16T19:04:40.083Z,18.60
2017-10-16T19:07:07.624Z,18.98
2017-10-16T19:09:35.164Z,28.93
2017-10-16T19:12:02.689Z,24.47
2017-10-16T19:14:30.227Z,22.37
2017-10-16T19:16:59.490Z,41.58
2017-10-16T19:19:27.005Z,30.93
2017-10-16T19:21:54.723Z,37.10
2017-10-16T19:24:22.345Z,30.77
2017-10-16T19:26:49.862Z,25.47
2017-10-16T19:29:18.773Z,26.74
2017-10-16T19:31:46.316Z,19.27
2017-10-16T19:34:14.631Z,27.67
2017-10-16T19:36:43.118Z,23.00
2017-10-16T19:39:10.636Z,29.25
2017-10-16T19:41:38.995Z,28.00
2017-10-16T19:44:07.067Z,24.30
2017-10-16T19:46:34.596Z,25.93
2017-10-16T19:49:02.164Z,25.90
2017-10-16T19:51:29.739Z,31.95
2017-10-16T19:53:57.276Z,34.60
2017-10-16T19:56:28.423Z,25.93
2017-10-16T19:58:56.985Z,26.00
2017-10-16T20:01:24.855Z,27.27
2017-10-16T20:03:52.799Z,28.60
2017-10-16T20:06:22.743Z,27.92
2017-10-16T20:08:50.301Z,21.97
2017-10-16T20:11:18.998Z,25.17
2017-10-16T20:13:46.672Z,25.37
2017-10-16T20:16:15.789Z,28.77
2017-10-16T20:18:43.560Z,29.50
2017-10-16T20:21:12.074Z,30.13
2017-10-16T20:23:40.179Z,23.23
2017-10-16T20:26:08.003Z,23.20
2017-10-16T20:28:36.738Z,22.93
2017-10-16T20:31:06.209Z,27.10
2017-10-16T20:33:34.221Z,35.90
2017-10-16T20:36:02.320Z,30.53
2017-10-16T20:38:30.788Z,27.80
2017-10-16T20:40:59.086Z,20.17
2017-10-16T20:43:26.827Z,27.70
2017-10-16T20:45:56.171Z,24.37
2017-10-16T20:48:24.328Z,19.63
2017-10-16T20:50:53.820Z,26.10
2017-10-16T20:53:21.479Z,20.40
2017-10-16T20:55:50.931Z,18.23
2017-10-16T20:58:18.464Z,28.85
2017-10-16T21:00:45.983Z,23.43
2017-10-16T21:03:13.556Z,20.50
2017-10-16T21:05:41.300Z,22.97
2017-10-16T21:08:10.326Z,22.52
2017-10-16T21:10:37.891Z,20.35
2017-10-16T21:13:06.172Z,16.67
2017-10-16T21:15:34.021Z,19.30
2017-10-16T21:18:02.439Z,20.23
2017-10-16T21:20:30.051Z,31.63
2017-10-16T21:22:57.609Z,21.13
2017-10-16T21:25:25.129Z,18.50
2017-10-16T21:27:57.089Z,24.75
2017-10-16T21:30:24.595Z,24.47
2017-10-16T21:32:53.017Z,29.00
2017-10-16T21:35:22.210Z,21.08
2017-10-16T21:37:49.719Z,26.77
2017-10-16T21:40:17.226Z,26.70
2017-10-16T21:42:44.792Z,23.10
2017-10-16T21:45:12.910Z,21.70
2017-10-16T21:47:40.447Z,19.52
2017-10-16T21:50:08.003Z,25.63
2017-10-16T21:52:35.526Z,23.47
2017-10-16T21:55:03.056Z,32.00
2017-10-16T21:57:30.646Z,20.23
2017-10-16T21:59:58.249Z,21.60
2017-10-16T22:02:25.823Z,17.25
2017-10-16T22:04:53.338Z,20.47
2017-10-16T22:07:24.683Z,15.63
2017-10-16T22:09:52.224Z,18.42
2017-10-16T22:12:19.781Z,13.75
2017-10-16T22:14:47.329Z,12.70
2017-10-16T22:17:16.527Z,17.87
2017-10-16T22:19:44.066Z,18.80
2017-10-16T22:22:11.604Z,15.38
2017-10-16T22:24:39.175Z,20.13
2017-10-16T22:27:06.728Z,21.60
2017-10-16T22:29:34.547Z,18.75
2017-10-16T22:32:02.121Z,25.50
2017-10-16T22:34:29.831Z,17.45
2017-10-16T22:36:57.363Z,25.60
2017-10-16T22:39:24.925Z,16.77
2017-10-16T22:41:52.816Z,20.13
2017-10-16T22:44:23.295Z,24.00
2017-10-16T22:46:55.178Z,24.87
2017-10-16T22:49:22.720Z,19.33
2017-10-16T22:51:50.268Z,31.65
2017-10-16T22:54:29.714Z,26.10
2017-10-16T22:56:57.236Z,17.07
2017-10-16T22:59:24.842Z,21.45
2017-10-16T23:01:52.379Z,23.02
2017-10-16T23:04:20.693Z,15.52
2017-10-16T23:06:48.300Z,12.80
2017-10-16T23:09:16.575Z,18.20
2017-10-16T23:11:45.772Z,24.10
2017-10-16T23:14:13.322Z,15.13
2017-10-16T23:16:41.651Z,28.30
2017-10-16T23:19:10.132Z,19.33
2017-10-16T23:21:37.676Z,21.63
2017-10-16T23:24:05.351Z,16.87
2017-10-16T23:26:32.896Z,25.58
2017-10-16T23:29:00.444Z,18.20
2017-10-16T23:31:33.862Z,14.80
2017-10-16T23:34:01.404Z,18.70
2017-10-16T23:36:29.464Z,17.33
2017-10-16T23:38:56.995Z,25.80
2017-10-16T23:41:24.611Z,17.85
2017-10-16T23:43:52.111Z,33.00
2017-10-16T23:46:19.627Z,14.67
2017-10-16T23:48:47.168Z,12.97
2017-10-16T23:51:14.748Z,16.80
2017-10-16T23:53:42.421Z,11.77
2017-10-16T23:56:09.935Z,18.53
2017-10-16T23:58:38.687Z,14.63
